KPUC/PUC METAR and TAF weather

Enter ICAO airport designator
Station Type Date Time Source
KPUC METAR 2022/05/26 04:53 UTC NOAA

KPUC 260453Z AUTO 33010KT 10SM CLR 17/M04 A3011 RMK AO2 SLP140 T01721044


Station Type Date Time Source
KPUC Decoded METAR 2022/05/26 04:53 UTC NOAA

PRICE CARBON COUNTY AIRPORT, UT, United States (KPUC) 39-37N 110-45W 2091M
May 26, 2022 - 12:53 AM EDT / 2022.05.26 0453 UTC
Wind: from the NNW (330 degrees) at 12 MPH (10 KT):0
Visibility: 10 mile(s):0
Sky conditions: clear
Temperature: 63.0 F (17.2 C)
Dew Point: 24.1 F (-4.4 C)
Relative Humidity: 22%
Pressure (altimeter): 30.11 in. Hg (1019 hPa)
ob: KPUC 260453Z AUTO 33010KT 10SM CLR 17/M04 A3011 RMK AO2 SLP140 T01721044
cycle: 5

Station Type Date Time Source
KPUC TAF UTC NOAA

Error!

Example: see airport list